createdAt,value
2018-09-29T00:00:38.053Z,100944.93
2018-09-29T00:03:04.053Z,100944.06
2018-09-29T00:05:29.971Z,100947.41
2018-09-29T00:07:55.915Z,100944.84
2018-09-29T00:10:22.009Z,100946.50
2018-09-29T00:12:47.841Z,100942.69
2018-09-29T00:15:13.781Z,100941.87
2018-09-29T00:17:39.738Z,100936.33
2018-09-29T00:20:05.732Z,100936.71
2018-09-29T00:22:31.673Z,100932.44
2018-09-29T00:24:57.603Z,100932.84
2018-09-29T00:27:23.564Z,100940.89
2018-09-29T00:29:49.535Z,100939.25
2018-09-29T00:32:15.521Z,100937.53
2018-09-29T00:34:41.482Z,100930.30
2018-09-29T00:37:07.455Z,100924.31
2018-09-29T00:39:33.406Z,100921.31
2018-09-29T00:41:59.367Z,100928.91
2018-09-29T00:44:25.310Z,100935.66
2018-09-29T00:46:51.278Z,100939.10
2018-09-29T00:49:17.210Z,100943.41
2018-09-29T00:51:43.181Z,100940.44
2018-09-29T00:54:09.217Z,100941.66
2018-09-29T00:56:35.203Z,100944.17
2018-09-29T00:59:01.140Z,100938.25
2018-09-29T01:01:27.118Z,100951.37
2018-09-29T01:03:53.044Z,100959.88
2018-09-29T01:06:19.039Z,100959.44
2018-09-29T01:08:44.983Z,100956.06
2018-09-29T01:11:10.953Z,100954.32
2018-09-29T01:13:36.921Z,100958.03
2018-09-29T01:16:02.894Z,100954.98
2018-09-29T01:18:28.845Z,100957.00
2018-09-29T01:20:54.812Z,100950.66
2018-09-29T01:23:20.817Z,100957.03
2018-09-29T01:25:46.812Z,100955.35
2018-09-29T01:28:12.753Z,100951.95
2018-09-29T01:30:38.723Z,100949.38
2018-09-29T01:33:04.708Z,100949.71
2018-09-29T01:35:30.664Z,100956.08
2018-09-29T01:37:56.608Z,100964.19
2018-09-29T01:40:22.581Z,100962.95
2018-09-29T01:42:48.543Z,100968.47
2018-09-29T01:45:14.503Z,100968.92
2018-09-29T01:47:40.528Z,100968.95
2018-09-29T01:50:06.500Z,100976.98
2018-09-29T01:52:32.450Z,100971.05
2018-09-29T01:54:58.397Z,100979.15
2018-09-29T01:57:24.399Z,100973.23
2018-09-29T01:59:50.331Z,100975.29
2018-09-29T02:02:16.291Z,100981.48
2018-09-29T02:04:42.253Z,100988.08
2018-09-29T02:07:08.206Z,100978.27
2018-09-29T02:09:34.148Z,100980.27
2018-09-29T02:12:00.096Z,100977.66
2018-09-29T02:14:26.057Z,100969.27
2018-09-29T02:16:52.023Z,100970.99
2018-09-29T02:19:17.956Z,100968.91
2018-09-29T02:21:43.942Z,100971.84
2018-09-29T02:24:09.901Z,100963.73
2018-09-29T02:26:35.875Z,100962.41
2018-09-29T02:29:01.937Z,100957.69
2018-09-29T02:31:27.837Z,100961.87
2018-09-29T02:33:53.789Z,100964.91
2018-09-29T02:36:19.760Z,100967.11
2018-09-29T02:38:45.721Z,100965.06
2018-09-29T02:41:11.714Z,100964.34
2018-09-29T02:43:37.679Z,100971.11
2018-09-29T02:46:03.743Z,100971.86
2018-09-29T02:48:29.690Z,100975.61
2018-09-29T02:50:55.631Z,100970.44
2018-09-29T02:53:21.601Z,100973.39
2018-09-29T02:55:47.539Z,100972.52
2018-09-29T02:58:13.489Z,100978.89
2018-09-29T03:00:39.442Z,100976.81
2018-09-29T03:03:05.394Z,100977.95
2018-09-29T03:05:31.334Z,100975.30
2018-09-29T03:07:57.274Z,100974.37
2018-09-29T03:10:23.221Z,100970.92
2018-09-29T03:12:49.181Z,100972.94
2018-09-29T03:15:15.121Z,100973.78
2018-09-29T03:17:41.081Z,100975.86
2018-09-29T03:20:07.057Z,100973.45
2018-09-29T03:22:32.992Z,100982.80
2018-09-29T03:24:58.948Z,100984.12
2018-09-29T03:27:24.901Z,100985.45
2018-09-29T03:29:50.851Z,100978.20
2018-09-29T03:32:16.799Z,100982.81
2018-09-29T03:34:42.770Z,100988.38
2018-09-29T03:37:08.728Z,100996.02
2018-09-29T03:39:34.690Z,101003.66
2018-09-29T03:42:00.621Z,101010.42
2018-09-29T03:44:26.553Z,101015.90
2018-09-29T03:46:52.512Z,101010.55
2018-09-29T03:49:18.480Z,101006.11
2018-09-29T03:51:44.435Z,101004.77
2018-09-29T03:54:10.388Z,101008.08
2018-09-29T03:56:36.322Z,101006.44
2018-09-29T03:59:02.310Z,101009.48
2018-09-29T04:01:28.265Z,101017.22
2018-09-29T04:03:54.216Z,101015.55
2018-09-29T04:06:20.162Z,101020.16
2018-09-29T04:08:46.132Z,101018.06
2018-09-29T04:11:12.076Z,101015.82
2018-09-29T04:13:38.107Z,101016.64
2018-09-29T04:16:04.041Z,101026.34
2018-09-29T04:18:30.024Z,101025.80
2018-09-29T04:20:56.037Z,101036.41
2018-09-29T04:23:22.050Z,101034.93
2018-09-29T04:25:47.998Z,101031.03
2018-09-29T04:28:13.979Z,101036.48
2018-09-29T04:30:39.970Z,101039.02
2018-09-29T04:33:05.916Z,101045.30
2018-09-29T04:35:31.964Z,101046.63
2018-09-29T04:37:57.928Z,101046.67
2018-09-29T04:40:23.884Z,101050.87
2018-09-29T04:42:49.859Z,101057.52
2018-09-29T04:45:15.793Z,101053.87
2018-09-29T04:47:41.740Z,101067.23
2018-09-29T04:50:07.697Z,101071.99
2018-09-29T04:52:33.660Z,101071.91
2018-09-29T04:54:59.622Z,101073.65
2018-09-29T04:57:25.588Z,101073.82
2018-09-29T04:59:51.517Z,101066.66
2018-09-29T05:02:17.486Z,101066.14
2018-09-29T05:04:43.453Z,101074.39
2018-09-29T05:07:09.404Z,101073.00
2018-09-29T05:09:35.359Z,101080.07
2018-09-29T05:12:01.347Z,101075.53
2018-09-29T05:14:27.307Z,101087.83
2018-09-29T05:16:53.283Z,101089.59
2018-09-29T05:19:19.278Z,101086.27
2018-09-29T05:21:45.214Z,101092.72
2018-09-29T05:24:11.213Z,101095.29
2018-09-29T05:26:37.167Z,101095.38
2018-09-29T05:29:03.140Z,101094.97
2018-09-29T05:31:29.089Z,101097.67
2018-09-29T05:33:55.061Z,101103.97
2018-09-29T05:36:21.024Z,101109.47
2018-09-29T05:38:46.998Z,101108.04
2018-09-29T05:41:12.937Z,101110.31
2018-09-29T05:43:38.907Z,101110.39
2018-09-29T05:46:04.848Z,101115.20
2018-09-29T05:48:30.814Z,101110.72
2018-09-29T05:50:56.785Z,101113.00
2018-09-29T05:53:22.737Z,101105.66
2018-09-29T05:55:48.698Z,101105.47
2018-09-29T05:58:14.760Z,101106.50
2018-09-29T06:00:40.813Z,101104.86
2018-09-29T06:03:06.669Z,101105.80
2018-09-29T06:05:32.687Z,101106.84
2018-09-29T06:07:58.607Z,101106.14
2018-09-29T06:10:24.567Z,101106.73
2018-09-29T06:12:50.517Z,101110.72
2018-09-29T06:15:16.459Z,101109.64
2018-09-29T06:17:42.403Z,101114.45
2018-09-29T06:20:08.361Z,101114.12
2018-09-29T06:22:34.349Z,101113.36
2018-09-29T06:25:00.293Z,101113.84
2018-09-29T06:27:26.266Z,101116.84
2018-09-29T06:29:52.192Z,101112.27
2018-09-29T06:32:18.142Z,101111.47
2018-09-29T06:34:44.081Z,101117.44
2018-09-29T06:37:10.022Z,101118.30
2018-09-29T06:39:35.971Z,101130.22
2018-09-29T06:42:01.919Z,101131.09
2018-09-29T06:44:27.880Z,101136.18
2018-09-29T06:46:53.862Z,101129.86
2018-09-29T06:49:19.825Z,101140.45
2018-09-29T06:51:45.766Z,101136.59
2018-09-29T06:54:11.778Z,101145.52
2018-09-29T06:56:37.723Z,101154.86
2018-09-29T06:59:03.656Z,101164.17
2018-09-29T07:01:29.626Z,101167.14
2018-09-29T07:03:55.584Z,101166.30
2018-09-29T07:06:21.537Z,101169.69
2018-09-29T07:08:47.473Z,101175.19
2018-09-29T07:11:13.411Z,101168.77
2018-09-29T07:13:39.356Z,101181.08
2018-09-29T07:16:05.332Z,101180.64
2018-09-29T07:18:32.280Z,101183.97
2018-09-29T07:20:58.330Z,101176.63
2018-09-29T07:23:24.351Z,101180.39
2018-09-29T07:25:50.318Z,101181.64
2018-09-29T07:28:16.284Z,101191.28
2018-09-29T07:30:42.290Z,101190.69
2018-09-29T07:33:08.382Z,101187.26
2018-09-29T07:35:34.336Z,101187.98
2018-09-29T07:38:00.283Z,101180.20
2018-09-29T07:40:28.322Z,101183.11
2018-09-29T07:42:54.267Z,101191.92
2018-09-29T07:45:20.324Z,101188.30
2018-09-29T07:47:46.262Z,101188.98
2018-09-29T07:50:12.215Z,101189.31
2018-09-29T07:52:38.176Z,101190.52
2018-09-29T07:55:04.157Z,101189.59
2018-09-29T07:57:30.133Z,101187.93
2018-09-29T07:59:56.097Z,101191.80
2018-09-29T08:02:22.052Z,101185.41
2018-09-29T08:04:48.105Z,101193.52
2018-09-29T08:07:14.064Z,101196.45
2018-09-29T08:09:40.019Z,101194.74
2018-09-29T08:12:05.945Z,101199.38
2018-09-29T08:14:31.926Z,101207.91
2018-09-29T08:16:57.877Z,101207.48
2018-09-29T08:19:23.832Z,101205.81
2018-09-29T08:21:49.802Z,101203.61
2018-09-29T08:24:15.993Z,101209.08
2018-09-29T08:26:41.998Z,101203.99
2018-09-29T08:29:07.949Z,101202.33
2018-09-29T08:31:33.892Z,101203.19
2018-09-29T08:33:59.876Z,101198.59
2018-09-29T08:36:25.845Z,101206.82
2018-09-29T08:38:51.821Z,101207.00
2018-09-29T08:41:17.793Z,101205.80
2018-09-29T08:43:43.860Z,101208.83
2018-09-29T08:46:09.807Z,101202.77
2018-09-29T08:48:35.796Z,101198.39
2018-09-29T08:51:01.851Z,101199.11
2018-09-29T08:53:27.874Z,101201.46
2018-09-29T08:55:54.907Z,101192.90
2018-09-29T08:58:20.890Z,101192.45
2018-09-29T09:00:46.907Z,101175.77
2018-09-29T09:03:12.934Z,101190.57
2018-09-29T09:05:38.924Z,101177.77
2018-09-29T09:08:04.964Z,101174.89
2018-09-29T09:10:31.062Z,101172.30
2018-09-29T09:12:57.057Z,101173.01
2018-09-29T09:15:23.033Z,101170.98
2018-09-29T09:17:48.993Z,101178.43
2018-09-29T09:20:14.954Z,101174.41
2018-09-29T09:22:41.005Z,101181.02
2018-09-29T09:25:07.006Z,101182.63
2018-09-29T09:27:33.011Z,101184.36
2018-09-29T09:29:59.090Z,101185.48
2018-09-29T09:32:30.402Z,101189.33
2018-09-29T09:34:56.407Z,101187.36
2018-09-29T09:37:22.352Z,101180.56
2018-09-29T09:39:48.398Z,101184.31
2018-09-29T09:42:14.392Z,101179.00
2018-09-29T09:44:40.380Z,101169.66
2018-09-29T09:47:06.417Z,101176.37
2018-09-29T09:49:32.458Z,101172.03
2018-09-29T09:51:58.411Z,101169.85
2018-09-29T09:54:24.398Z,101170.42
2018-09-29T09:56:50.382Z,101165.69
2018-09-29T09:59:16.323Z,101167.06
2018-09-29T10:01:42.287Z,101168.67
2018-09-29T10:04:08.336Z,101171.22
2018-09-29T10:06:34.350Z,101175.52
2018-09-29T10:09:00.317Z,101173.01
2018-09-29T10:11:26.414Z,101172.80
2018-09-29T10:13:52.435Z,101179.41
2018-09-29T10:16:18.408Z,101169.72
2018-09-29T10:18:44.354Z,101167.30
2018-09-29T10:21:10.350Z,101168.44
2018-09-29T10:23:36.414Z,101166.59
2018-09-29T10:26:02.421Z,101169.86
2018-09-29T10:28:28.418Z,101169.70
2018-09-29T10:30:54.464Z,101164.91
2018-09-29T10:33:20.425Z,101171.88
2018-09-29T10:35:46.409Z,101170.28
2018-09-29T10:38:12.445Z,101162.06
2018-09-29T10:40:38.490Z,101163.15
2018-09-29T10:43:05.496Z,101164.44
2018-09-29T10:45:31.556Z,101170.43
2018-09-29T10:47:57.565Z,101163.24
2018-09-29T10:50:23.569Z,101160.81
2018-09-29T10:52:49.547Z,101163.76
2018-09-29T10:55:15.526Z,101168.98
2018-09-29T10:57:41.486Z,101159.89
2018-09-29T11:00:07.434Z,101164.50
2018-09-29T11:02:33.471Z,101163.55
2018-09-29T11:04:59.473Z,101154.22
2018-09-29T11:07:25.389Z,101149.44
2018-09-29T11:09:51.374Z,101142.49
2018-09-29T11:12:17.359Z,101140.78
2018-09-29T11:14:43.345Z,101132.92
2018-09-29T11:17:09.352Z,101127.74
2018-09-29T11:19:35.312Z,101126.16
2018-09-29T11:22:01.307Z,101117.24
2018-09-29T11:24:28.309Z,101113.78
2018-09-29T11:26:55.465Z,101112.22
2018-09-29T11:29:22.518Z,101101.48
2018-09-29T11:31:48.486Z,101099.25
2018-09-29T11:34:14.674Z,101098.49
2018-09-29T11:36:40.924Z,101099.36
2018-09-29T11:39:07.170Z,101095.31
2018-09-29T11:41:33.387Z,101101.63
2018-09-29T11:43:59.576Z,101094.20
2018-09-29T11:46:25.845Z,101096.28
2018-09-29T11:48:52.081Z,101097.06
2018-09-29T11:51:18.328Z,101089.83
2018-09-29T11:53:44.619Z,101092.84
2018-09-29T11:56:10.848Z,101091.58
2018-09-29T11:58:37.133Z,101088.70
2018-09-29T12:01:03.361Z,101090.95
2018-09-29T12:03:29.627Z,101086.25
2018-09-29T12:05:55.931Z,101078.52
2018-09-29T12:08:22.319Z,101081.88
2018-09-29T12:10:48.585Z,101078.42
2018-09-29T12:13:14.838Z,101080.08
2018-09-29T12:15:41.101Z,101076.11
2018-09-29T12:18:07.311Z,101075.02
2018-09-29T12:20:33.629Z,101069.84
2018-09-29T12:22:59.892Z,101073.17
2018-09-29T12:25:26.258Z,101071.09
2018-09-29T12:27:52.496Z,101069.30
2018-09-29T12:30:18.712Z,101065.86
2018-09-29T12:32:44.993Z,101066.98
2018-09-29T12:35:10.999Z,101059.11
2018-09-29T12:37:37.147Z,101062.88
2018-09-29T12:40:03.033Z,101052.25
2018-09-29T12:42:29.024Z,101048.92
2018-09-29T12:44:55.059Z,101043.48
2018-09-29T12:47:20.917Z,101040.11
2018-09-29T12:49:46.879Z,101036.91
2018-09-29T12:52:12.857Z,101033.06
2018-09-29T12:54:38.843Z,101025.81
2018-09-29T12:57:04.780Z,101021.48
2018-09-29T12:59:30.768Z,101014.66
2018-09-29T13:01:56.715Z,101017.14
2018-09-29T13:04:23.773Z,101011.23
2018-09-29T13:06:49.735Z,101005.26
2018-09-29T13:09:15.743Z,101006.30
2018-09-29T13:11:41.698Z,101001.55
2018-09-29T13:14:07.694Z,100995.59
2018-09-29T13:16:33.647Z,100984.16
2018-09-29T13:18:59.624Z,100981.64
2018-09-29T13:21:25.626Z,100974.41
2018-09-29T13:23:51.625Z,100972.19
2018-09-29T13:26:17.582Z,100968.27
2018-09-29T13:28:43.620Z,100965.60
2018-09-29T13:31:09.571Z,100971.02
2018-09-29T13:33:35.567Z,100976.55
2018-09-29T13:36:01.540Z,100978.16
2018-09-29T13:38:27.529Z,100965.84
2018-09-29T13:40:53.497Z,100964.27
2018-09-29T13:43:19.537Z,100963.97
2018-09-29T13:45:45.516Z,100964.83
2018-09-29T13:48:11.492Z,100958.81
2018-09-29T13:50:37.451Z,100956.63
2018-09-29T13:53:03.437Z,100950.25
2018-09-29T13:55:29.399Z,100949.84
2018-09-29T13:57:56.407Z,100948.53
2018-09-29T14:00:22.375Z,100947.73
2018-09-29T14:02:48.372Z,100946.94
2018-09-29T14:05:16.361Z,100953.39
2018-09-29T14:07:42.316Z,100949.13
2018-09-29T14:10:08.305Z,100946.56
2018-09-29T14:12:34.287Z,100942.31
2018-09-29T14:15:00.255Z,100936.57
2018-09-29T14:17:26.286Z,100933.95
2018-09-29T14:19:52.347Z,100934.84
2018-09-29T14:22:20.377Z,100932.63
2018-09-29T14:24:46.379Z,100933.08
2018-09-29T14:27:12.357Z,100930.48
2018-09-29T14:29:38.319Z,100927.91
2018-09-29T14:32:04.271Z,100926.62
2018-09-29T14:34:30.228Z,100924.52
2018-09-29T14:36:59.272Z,100926.14
2018-09-29T14:39:25.227Z,100927.44
2018-09-29T14:41:51.215Z,100919.00
2018-09-29T14:44:21.560Z,100923.17
2018-09-29T14:46:47.589Z,100928.22
2018-09-29T14:49:13.602Z,100925.20
2018-09-29T14:51:39.542Z,100923.44
2018-09-29T14:54:05.551Z,100924.67
2018-09-29T14:56:31.515Z,100913.56
2018-09-29T14:58:57.473Z,100910.11
2018-09-29T15:01:23.488Z,100909.73
2018-09-29T15:03:49.456Z,100916.23
2018-09-29T15:06:15.416Z,100905.55
2018-09-29T15:08:41.408Z,100904.83
2018-09-29T15:11:07.496Z,100893.22
2018-09-29T15:13:33.496Z,100895.61
2018-09-29T15:15:59.461Z,100896.07
2018-09-29T15:18:25.443Z,100895.27
2018-09-29T15:20:51.380Z,100888.37
2018-09-29T15:23:17.401Z,100884.53
2018-09-29T15:25:43.354Z,100885.76
2018-09-29T15:28:09.345Z,100881.48
2018-09-29T15:30:35.305Z,100879.78
2018-09-29T15:33:01.263Z,100876.08
2018-09-29T15:35:27.219Z,100876.16
2018-09-29T15:37:53.170Z,100877.41
2018-09-29T15:40:19.199Z,100871.83
2018-09-29T15:42:45.290Z,100869.33
2018-09-29T15:45:11.183Z,100861.80
2018-09-29T15:47:37.136Z,100864.88
2018-09-29T15:50:03.140Z,100865.33
2018-09-29T15:52:29.102Z,100866.21
2018-09-29T15:54:55.073Z,100859.75
2018-09-29T15:57:21.061Z,100858.22
2018-09-29T15:59:47.049Z,100851.56
2018-09-29T16:02:13.089Z,100854.52
2018-09-29T16:04:39.025Z,100854.34
2018-09-29T16:07:04.961Z,100842.88
2018-09-29T16:09:30.941Z,100843.87
2018-09-29T16:11:56.883Z,100837.58
2018-09-29T16:14:23.917Z,100830.85
2018-09-29T16:16:49.898Z,100836.41
2018-09-29T16:19:15.860Z,100786.66
2018-09-29T16:21:41.839Z,100827.33
2018-09-29T16:24:07.792Z,100826.80
2018-09-29T16:26:33.809Z,100828.03
2018-09-29T16:28:59.774Z,100826.83
2018-09-29T16:31:25.708Z,100827.30
2018-09-29T16:33:51.643Z,100819.65
2018-09-29T16:36:17.668Z,100821.66
2018-09-29T16:38:43.636Z,100821.13
2018-09-29T16:41:09.598Z,100822.95
2018-09-29T16:43:36.678Z,100820.32
2018-09-29T16:46:02.653Z,100821.55
2018-09-29T16:48:28.629Z,100823.58
2018-09-29T16:50:54.597Z,100826.55
2018-09-29T16:53:20.604Z,100819.68
2018-09-29T16:55:46.608Z,100817.92
2018-09-29T16:58:12.600Z,100818.75
2018-09-29T17:00:38.617Z,100821.86
2018-09-29T17:03:04.578Z,100820.69
2018-09-29T17:05:30.557Z,100821.60
2018-09-29T17:07:56.537Z,100826.89
2018-09-29T17:10:22.581Z,100823.50
2018-09-29T17:12:48.594Z,100826.97
2018-09-29T17:15:14.582Z,100825.30
2018-09-29T17:17:40.574Z,100822.88
2018-09-29T17:20:06.548Z,100829.39
2018-09-29T17:22:32.517Z,100824.75
2018-09-29T17:24:58.504Z,100820.84
2018-09-29T17:27:24.472Z,100825.03
2018-09-29T17:29:50.451Z,100826.39
2018-09-29T17:32:16.418Z,100837.02
2018-09-29T17:34:42.432Z,100836.62
2018-09-29T17:37:08.398Z,100839.16
2018-09-29T17:39:34.368Z,100840.03
2018-09-29T17:42:00.355Z,100837.61
2018-09-29T17:44:26.357Z,100833.55
2018-09-29T17:46:52.332Z,100834.66
2018-09-29T17:49:18.318Z,100836.42
2018-09-29T17:51:44.259Z,100838.19
2018-09-29T17:54:10.433Z,100838.27
2018-09-29T17:56:36.420Z,100834.84
2018-09-29T17:59:02.408Z,100841.98
2018-09-29T18:01:28.354Z,100846.20
2018-09-29T18:03:54.353Z,100843.27
2018-09-29T18:06:20.409Z,100843.30
2018-09-29T18:08:46.385Z,100838.62
2018-09-29T18:11:12.370Z,100844.16
2018-09-29T18:13:38.489Z,100843.34
2018-09-29T18:16:04.386Z,100843.35
2018-09-29T18:18:30.341Z,100852.34
2018-09-29T18:20:56.399Z,100851.91
2018-09-29T18:23:22.365Z,100856.54
2018-09-29T18:25:48.364Z,100854.39
2018-09-29T18:28:14.442Z,100860.01
2018-09-29T18:30:40.462Z,100857.52
2018-09-29T18:33:06.417Z,100852.00
2018-09-29T18:35:32.398Z,100850.45
2018-09-29T18:37:58.417Z,100847.97
2018-09-29T18:40:24.397Z,100849.27
2018-09-29T18:42:50.376Z,100842.90
2018-09-29T18:45:16.361Z,100843.78
2018-09-29T18:47:42.397Z,100842.08
2018-09-29T18:50:08.465Z,100842.07
2018-09-29T18:52:34.459Z,100841.61
2018-09-29T18:55:00.457Z,100842.45
2018-09-29T18:57:26.488Z,100840.34
2018-09-29T18:59:52.494Z,100844.13
2018-09-29T19:02:18.488Z,100848.81
2018-09-29T19:04:44.518Z,100846.23
2018-09-29T19:07:10.469Z,100836.95
2018-09-29T19:09:36.438Z,100838.23
2018-09-29T19:12:02.564Z,100838.64
2018-09-29T19:14:28.470Z,100834.47
2018-09-29T19:16:54.483Z,100832.79
2018-09-29T19:19:20.442Z,100829.39
2018-09-29T19:21:46.459Z,100828.09
2018-09-29T19:24:12.482Z,100827.69
2018-09-29T19:26:38.447Z,100828.95
2018-09-29T19:29:04.399Z,100825.55
2018-09-29T19:31:30.378Z,100825.98
2018-09-29T19:33:56.439Z,100824.34
2018-09-29T19:36:22.506Z,100827.73
2018-09-29T19:38:48.725Z,100826.48
2018-09-29T19:41:14.731Z,100827.36
2018-09-29T19:43:40.813Z,100826.92
2018-09-29T19:46:06.779Z,100827.02
2018-09-29T19:48:32.768Z,100827.88
2018-09-29T19:50:58.765Z,100834.66
2018-09-29T19:53:24.732Z,100829.56
2018-09-29T19:55:50.759Z,100821.91
2018-09-29T19:58:16.805Z,100823.64
2018-09-29T20:00:42.774Z,100818.58
2018-09-29T20:03:08.808Z,100812.67
2018-09-29T20:05:34.793Z,100816.90
2018-09-29T20:08:00.772Z,100820.69
2018-09-29T20:10:26.752Z,100815.98
2018-09-29T20:12:52.743Z,100814.72
2018-09-29T20:15:18.685Z,100809.24
2018-09-29T20:17:44.672Z,100810.07
2018-09-29T20:20:10.656Z,100807.58
2018-09-29T20:22:36.644Z,100806.70
2018-09-29T20:25:02.626Z,100800.34
2018-09-29T20:27:28.641Z,100797.81
2018-09-29T20:29:54.579Z,100793.99
2018-09-29T20:32:20.541Z,100795.67
2018-09-29T20:34:46.497Z,100786.36
2018-09-29T20:37:12.452Z,100788.05
2018-09-29T20:39:38.412Z,100781.28
2018-09-29T20:42:05.473Z,100776.61
2018-09-29T20:44:31.425Z,100772.37
2018-09-29T20:46:57.506Z,100771.11
2018-09-29T20:49:23.467Z,100775.36
2018-09-29T20:51:49.440Z,100764.32
2018-09-29T20:54:15.399Z,100763.05
2018-09-29T20:56:41.341Z,100765.61
2018-09-29T20:59:07.280Z,100756.28
2018-09-29T21:01:33.311Z,100759.23
2018-09-29T21:03:59.203Z,100759.66
2018-09-29T21:06:25.157Z,100753.71
2018-09-29T21:08:51.120Z,100754.16
2018-09-29T21:11:17.066Z,100754.14
2018-09-29T21:13:43.075Z,100750.77
2018-09-29T21:16:08.995Z,100752.42
2018-09-29T21:18:34.961Z,100748.13
2018-09-29T21:21:00.921Z,100747.25
2018-09-29T21:23:26.889Z,100738.34
2018-09-29T21:25:52.890Z,100739.14
2018-09-29T21:28:18.865Z,100734.89
2018-09-29T21:30:44.809Z,100733.57
2018-09-29T21:33:10.766Z,100729.78
2018-09-29T21:35:36.708Z,100736.95
2018-09-29T21:38:02.654Z,100730.13
2018-09-29T21:40:28.609Z,100725.42
2018-09-29T21:42:54.557Z,100719.03
2018-09-29T21:45:21.462Z,100716.47
2018-09-29T21:47:47.418Z,100714.23
2018-09-29T21:50:13.385Z,100718.89
2018-09-29T21:52:39.330Z,100715.16
2018-09-29T21:55:05.290Z,100711.86
2018-09-29T21:57:31.216Z,100713.09
2018-09-29T21:59:57.165Z,100710.97
2018-09-29T22:02:23.139Z,100709.22
2018-09-29T22:04:49.095Z,100704.53
2018-09-29T22:07:16.085Z,100712.14
2018-09-29T22:09:42.060Z,100705.78
2018-09-29T22:12:08.054Z,100699.38
2018-09-29T22:14:34.006Z,100694.36
2018-09-29T22:16:59.980Z,100679.91
2018-09-29T22:19:25.936Z,100685.02
2018-09-29T22:21:51.875Z,100681.19
2018-09-29T22:24:17.816Z,100679.41
2018-09-29T22:26:43.787Z,100674.36
2018-09-29T22:29:09.771Z,100675.23
2018-09-29T22:31:35.798Z,100666.44
2018-09-29T22:34:01.734Z,100667.66
2018-09-29T22:36:27.668Z,100668.11
2018-09-29T22:38:53.622Z,100666.44
2018-09-29T22:41:19.568Z,100657.86
2018-09-29T22:43:45.528Z,100659.52
2018-09-29T22:46:11.482Z,100660.70
2018-09-29T22:48:37.431Z,100658.64
2018-09-29T22:51:03.449Z,100650.98
2018-09-29T22:53:29.411Z,100647.16
2018-09-29T22:55:55.392Z,100642.05
2018-09-29T22:58:21.358Z,100630.23
2018-09-29T23:00:47.351Z,100628.95
2018-09-29T23:03:13.325Z,100623.45
2018-09-29T23:05:39.295Z,100628.15
2018-09-29T23:08:05.256Z,100626.07
2018-09-29T23:10:31.244Z,100622.63
2018-09-29T23:12:57.205Z,100614.95
2018-09-29T23:15:23.196Z,100612.84
2018-09-29T23:17:49.158Z,100617.47
2018-09-29T23:20:15.121Z,100612.42
2018-09-29T23:22:41.077Z,100609.47
2018-09-29T23:25:07.057Z,100606.84
2018-09-29T23:27:32.991Z,100602.16
2018-09-29T23:29:58.952Z,100594.61
2018-09-29T23:32:24.924Z,100588.29
2018-09-29T23:34:50.883Z,100587.50
2018-09-29T23:37:16.838Z,100581.64
2018-09-29T23:39:42.828Z,100582.51
2018-09-29T23:42:08.800Z,100578.70
2018-09-29T23:44:34.764Z,100567.66
2018-09-29T23:47:00.706Z,100570.52
2018-09-29T23:49:26.701Z,100565.78
2018-09-29T23:51:52.681Z,100566.73
2018-09-29T23:54:18.658Z,100567.25
2018-09-29T23:56:44.615Z,100565.11
2018-09-29T23:59:10.565Z,100560.89
